createdAt,value
2018-05-14T00:00:35.762Z,98.00
2018-05-14T00:03:03.234Z,98.00
2018-05-14T00:05:30.671Z,98.10
2018-05-14T00:07:58.175Z,98.20
2018-05-14T00:10:25.606Z,98.20
2018-05-14T00:12:53.803Z,98.20
2018-05-14T00:15:22.014Z,98.20
2018-05-14T00:17:49.478Z,98.20
2018-05-14T00:20:16.956Z,98.30
2018-05-14T00:22:44.373Z,98.30
2018-05-14T00:25:11.897Z,98.20
2018-05-14T00:27:39.367Z,98.10
2018-05-14T00:30:06.794Z,98.10
2018-05-14T00:32:34.986Z,98.20
2018-05-14T00:35:03.216Z,98.00
2018-05-14T00:37:30.634Z,98.00
2018-05-14T00:39:58.259Z,98.10
2018-05-14T00:42:25.683Z,98.30
2018-05-14T00:44:53.880Z,98.30
2018-05-14T00:47:22.091Z,98.30
2018-05-14T00:49:49.562Z,98.30
2018-05-14T00:52:17.041Z,98.20
2018-05-14T00:54:56.235Z,98.20
2018-05-14T00:57:23.851Z,98.30
2018-05-14T00:59:52.014Z,98.20
2018-05-14T01:02:20.239Z,98.40
2018-05-14T01:04:47.658Z,98.40
2018-05-14T01:07:19.054Z,98.40
2018-05-14T01:09:46.527Z,98.50
2018-05-14T01:12:13.958Z,98.60
2018-05-14T01:14:41.477Z,98.70
2018-05-14T01:17:08.939Z,98.60
2018-05-14T01:19:36.370Z,98.70
2018-05-14T01:22:04.594Z,98.80
2018-05-14T01:24:32.038Z,98.80
2018-05-14T01:27:00.247Z,98.80
2018-05-14T01:29:27.725Z,98.80
2018-05-14T01:31:55.200Z,98.80
2018-05-14T01:34:22.655Z,98.70
2018-05-14T01:36:50.132Z,98.70
2018-05-14T01:39:17.555Z,98.70
2018-05-14T01:41:44.999Z,98.80
2018-05-14T01:44:12.422Z,99.00
2018-05-14T01:46:39.855Z,98.90
2018-05-14T01:49:08.099Z,98.80
2018-05-14T01:51:35.535Z,98.80
2018-05-14T01:54:03.750Z,98.70
2018-05-14T01:56:31.186Z,98.70
2018-05-14T01:58:58.602Z,98.70
2018-05-14T02:01:26.034Z,98.70
2018-05-14T02:03:54.226Z,98.60
2018-05-14T02:06:22.422Z,98.70
2018-05-14T02:08:49.846Z,98.70
2018-05-14T02:11:17.374Z,98.70
2018-05-14T02:13:44.841Z,98.70
2018-05-14T02:16:12.278Z,98.80
2018-05-14T02:18:39.786Z,98.80
2018-05-14T02:21:07.254Z,98.90
2018-05-14T02:23:34.681Z,98.70
2018-05-14T02:26:02.189Z,98.60
2018-05-14T02:28:29.662Z,98.80
2018-05-14T02:30:57.130Z,98.80
2018-05-14T02:33:24.562Z,98.70
2018-05-14T02:35:52.004Z,98.60
2018-05-14T02:38:19.427Z,98.50
2018-05-14T02:40:46.878Z,98.50
2018-05-14T02:43:15.071Z,98.60
2018-05-14T02:45:43.276Z,98.50
2018-05-14T02:48:10.746Z,98.50
2018-05-14T02:50:38.227Z,98.40
2018-05-14T02:53:05.655Z,98.30
2018-05-14T02:55:33.859Z,98.30
2018-05-14T02:58:02.074Z,98.10
2018-05-14T03:00:29.498Z,98.10
2018-05-14T03:02:57.780Z,97.70
2018-05-14T03:05:25.294Z,98.00
2018-05-14T03:07:52.731Z,98.10
2018-05-14T03:10:21.014Z,98.20
2018-05-14T03:12:48.422Z,98.20
2018-05-14T03:15:15.898Z,98.20
2018-05-14T03:17:43.363Z,98.20
2018-05-14T03:20:10.786Z,98.20
2018-05-14T03:22:38.986Z,98.10
2018-05-14T03:25:07.186Z,98.10
2018-05-14T03:27:35.378Z,98.00
2018-05-14T03:30:02.802Z,98.00
2018-05-14T03:32:30.339Z,98.00
2018-05-14T03:34:57.810Z,98.10
2018-05-14T03:37:25.243Z,98.10
2018-05-14T03:39:53.462Z,98.20
2018-05-14T03:42:20.890Z,98.10
2018-05-14T03:44:48.314Z,98.20
2018-05-14T03:47:15.754Z,98.20
2018-05-14T03:49:43.170Z,98.40
2018-05-14T03:52:10.607Z,98.40
2018-05-14T03:54:38.075Z,98.30
2018-05-14T03:57:05.538Z,98.20
2018-05-14T03:59:45.002Z,98.20
2018-05-14T04:02:24.362Z,98.20
2018-05-14T04:05:03.690Z,98.00
2018-05-14T04:07:31.266Z,98.00
2018-05-14T04:09:59.458Z,97.90
2018-05-14T04:12:26.922Z,97.90
2018-05-14T04:14:54.501Z,97.90
2018-05-14T04:17:21.959Z,97.90
2018-05-14T04:19:49.436Z,97.80
2018-05-14T04:22:16.902Z,98.00
2018-05-14T04:24:44.329Z,98.00
2018-05-14T04:27:12.526Z,98.00
2018-05-14T04:29:40.750Z,98.10
2018-05-14T04:32:08.218Z,98.00
2018-05-14T04:34:35.690Z,98.00
2018-05-14T04:37:03.123Z,97.90
2018-05-14T04:39:31.337Z,98.20
2018-05-14T04:41:58.769Z,97.80
2018-05-14T04:44:26.293Z,97.80
2018-05-14T04:46:53.722Z,97.90
2018-05-14T04:49:21.919Z,97.80
2018-05-14T04:51:50.118Z,97.80
2018-05-14T04:54:17.540Z,97.80
2018-05-14T04:56:44.962Z,97.80
2018-05-14T04:59:12.448Z,97.70
2018-05-14T05:01:40.578Z,97.70
2018-05-14T05:04:08.014Z,97.80
2018-05-14T05:06:35.439Z,97.80
2018-05-14T05:09:03.644Z,97.90
2018-05-14T05:11:31.165Z,97.90
2018-05-14T05:13:58.590Z,97.90
2018-05-14T05:16:26.080Z,98.00
2018-05-14T05:18:53.522Z,98.00
2018-05-14T05:21:20.998Z,97.90
2018-05-14T05:23:48.430Z,98.00
2018-05-14T05:26:16.658Z,98.30
2018-05-14T05:28:44.127Z,98.30
2018-05-14T05:31:11.549Z,98.30
2018-05-14T05:33:40.518Z,98.00
2018-05-14T05:36:07.968Z,98.00
2018-05-14T05:38:35.398Z,98.10
2018-05-14T05:41:02.878Z,98.20
2018-05-14T05:43:31.078Z,98.40
2018-05-14T05:45:58.502Z,98.40
2018-05-14T05:48:26.026Z,98.60
2018-05-14T05:50:53.466Z,98.40
2018-05-14T05:53:21.691Z,98.50
2018-05-14T05:55:49.115Z,98.50
2018-05-14T05:58:17.313Z,98.70
2018-05-14T06:00:45.536Z,98.70
2018-05-14T06:03:13.006Z,98.70
2018-05-14T06:05:40.426Z,98.40
2018-05-14T06:08:07.947Z,98.60
2018-05-14T06:10:35.387Z,98.70
2018-05-14T06:13:03.587Z,98.40
2018-05-14T06:15:31.081Z,98.30
2018-05-14T06:17:58.529Z,98.50
2018-05-14T06:20:25.906Z,98.40
2018-05-14T06:22:53.378Z,98.60
2018-05-14T06:25:20.844Z,98.60
2018-05-14T06:27:48.349Z,98.60
2018-05-14T06:30:16.491Z,98.40
2018-05-14T06:32:43.918Z,98.50
2018-05-14T06:35:11.338Z,98.50
2018-05-14T06:37:38.766Z,98.50
2018-05-14T06:40:06.285Z,98.60
2018-05-14T06:42:33.751Z,98.80
2018-05-14T06:45:01.222Z,98.80
2018-05-14T06:47:28.702Z,98.90
2018-05-14T06:49:56.208Z,98.90
2018-05-14T06:52:23.634Z,98.90
2018-05-14T06:54:51.070Z,97.90
2018-05-14T06:57:19.263Z,97.90
2018-05-14T06:59:47.455Z,97.70
2018-05-14T07:02:15.775Z,97.80
2018-05-14T07:04:43.129Z,97.80
2018-05-14T07:07:10.553Z,97.40
2018-05-14T07:09:38.074Z,97.40
2018-05-14T07:12:05.542Z,97.50
2018-05-14T07:14:32.978Z,97.70
2018-05-14T07:17:00.482Z,97.60
2018-05-14T07:19:27.956Z,97.40
2018-05-14T07:21:55.378Z,97.40
2018-05-14T07:24:22.884Z,97.40
2018-05-14T07:26:50.370Z,97.70
2018-05-14T07:29:17.694Z,98.10
2018-05-14T07:31:45.210Z,98.10
2018-05-14T07:34:12.676Z,97.80
2018-05-14T07:36:40.218Z,97.40
2018-05-14T07:39:08.326Z,97.90
2018-05-14T07:41:35.749Z,97.80
2018-05-14T07:44:03.981Z,97.30
2018-05-14T07:46:31.398Z,97.30
2018-05-14T07:48:59.066Z,97.20
2018-05-14T07:51:26.598Z,97.50
2018-05-14T07:53:54.017Z,97.70
2018-05-14T07:56:21.442Z,97.50
2018-05-14T07:58:48.874Z,97.20
2018-05-14T08:01:17.086Z,97.70
2018-05-14T08:03:44.521Z,97.70
2018-05-14T08:06:12.031Z,97.70
2018-05-14T08:08:39.503Z,97.70
2018-05-14T08:11:06.926Z,97.10
2018-05-14T08:13:34.439Z,96.90
2018-05-14T08:16:01.942Z,96.50
2018-05-14T08:18:29.486Z,96.70
2018-05-14T08:20:56.909Z,96.10
2018-05-14T08:23:24.406Z,96.90
2018-05-14T08:25:51.766Z,96.80
2018-05-14T08:28:19.979Z,96.60
2018-05-14T08:30:47.442Z,96.60
2018-05-14T08:33:14.879Z,95.90
2018-05-14T08:35:42.386Z,95.90
2018-05-14T08:38:09.827Z,96.10
2018-05-14T08:40:38.066Z,96.20
2018-05-14T08:43:05.474Z,96.20
2018-05-14T08:45:32.988Z,96.20
2018-05-14T08:48:00.475Z,96.30
2018-05-14T08:50:28.746Z,96.20
2018-05-14T08:52:56.215Z,96.00
2018-05-14T08:55:23.683Z,96.30
2018-05-14T08:57:51.258Z,96.20
2018-05-14T09:00:18.725Z,95.70
2018-05-14T09:02:46.194Z,96.10
2018-05-14T09:05:13.626Z,96.20
2018-05-14T09:07:41.131Z,96.50
2018-05-14T09:10:08.567Z,96.70
2018-05-14T09:12:36.078Z,96.50
2018-05-14T09:15:03.552Z,96.70
2018-05-14T09:17:31.019Z,97.00
2018-05-14T09:19:58.486Z,97.30
2018-05-14T09:22:25.951Z,97.40
2018-05-14T09:24:53.422Z,97.50
2018-05-14T09:27:20.841Z,97.50
2018-05-14T09:29:49.799Z,97.70
2018-05-14T09:32:17.230Z,97.70
2018-05-14T09:34:44.739Z,97.90
2018-05-14T09:37:12.258Z,98.30
2018-05-14T09:39:39.660Z,98.00
2018-05-14T09:42:07.844Z,98.30
2018-05-14T09:44:36.105Z,98.40
2018-05-14T09:47:03.710Z,98.40
2018-05-14T09:49:30.905Z,98.40
2018-05-14T09:51:58.453Z,98.30
2018-05-14T09:54:25.802Z,98.40
2018-05-14T09:56:53.999Z,98.80
2018-05-14T09:59:22.203Z,98.70
2018-05-14T10:01:49.630Z,98.70
2018-05-14T10:04:17.062Z,98.70
2018-05-14T10:06:44.514Z,99.00
2018-05-14T10:09:12.623Z,98.40
2018-05-14T10:11:40.067Z,98.00
2018-05-14T10:14:07.521Z,98.30
2018-05-14T10:16:35.002Z,97.70
2018-05-14T10:19:02.474Z,97.80
2018-05-14T10:21:29.948Z,97.60
2018-05-14T10:23:57.386Z,97.30
2018-05-14T10:26:25.602Z,97.40
2018-05-14T10:28:53.030Z,97.40
2018-05-14T10:31:20.542Z,97.60
2018-05-14T10:33:47.971Z,97.90
2018-05-14T10:36:16.239Z,97.70
2018-05-14T10:38:43.667Z,97.70
2018-05-14T10:41:11.138Z,97.40
2018-05-14T10:43:38.571Z,96.30
2018-05-14T10:46:06.794Z,95.50
2018-05-14T10:48:34.232Z,95.20
2018-05-14T10:51:02.454Z,93.00
2018-05-14T10:53:29.881Z,93.00
2018-05-14T10:55:57.390Z,92.90
2018-05-14T10:58:24.862Z,91.50
2018-05-14T11:00:52.294Z,90.70
2018-05-14T11:03:20.519Z,91.00
2018-05-14T11:05:47.986Z,91.00
2018-05-14T11:08:15.414Z,88.60
2018-05-14T11:10:43.616Z,88.20
2018-05-14T11:13:11.827Z,87.20
2018-05-14T11:15:39.267Z,87.20
2018-05-14T11:18:06.778Z,87.40
2018-05-14T11:20:34.246Z,89.00
2018-05-14T11:23:01.711Z,90.20
2018-05-14T11:25:29.146Z,84.40
2018-05-14T11:27:57.496Z,82.90
2018-05-14T11:30:24.802Z,82.70
2018-05-14T11:32:52.994Z,78.20
2018-05-14T11:35:21.215Z,79.40
2018-05-14T11:37:48.678Z,79.30
2018-05-14T11:40:16.106Z,79.90
2018-05-14T11:42:43.550Z,77.70
2018-05-14T11:45:10.978Z,79.30
2018-05-14T11:47:38.458Z,78.80
2018-05-14T11:50:05.900Z,77.30
2018-05-14T11:52:34.087Z,75.50
2018-05-14T11:55:02.320Z,79.40
2018-05-14T11:57:30.738Z,79.40
2018-05-14T11:59:59.708Z,78.50
2018-05-14T12:02:27.139Z,78.30
2018-05-14T12:04:55.345Z,75.40
2018-05-14T12:07:22.774Z,75.20
2018-05-14T12:09:50.202Z,80.60
2018-05-14T12:12:17.695Z,78.70
2018-05-14T12:14:45.102Z,80.60
2018-05-14T12:17:13.295Z,82.10
2018-05-14T12:19:41.495Z,84.00
2018-05-14T12:22:08.985Z,84.00
2018-05-14T12:24:36.450Z,78.90
2018-05-14T12:27:03.933Z,79.10
2018-05-14T12:29:31.417Z,79.30
2018-05-14T12:31:58.950Z,76.10
2018-05-14T12:34:26.454Z,78.50
2018-05-14T12:36:53.902Z,74.20
2018-05-14T12:39:21.351Z,72.80
2018-05-14T12:41:48.774Z,73.70
2018-05-14T12:44:16.425Z,72.10
2018-05-14T12:46:43.925Z,70.30
2018-05-14T12:49:11.399Z,74.70
2018-05-14T12:51:38.873Z,70.10
2018-05-14T12:54:06.639Z,73.80
2018-05-14T12:56:34.120Z,66.80
2018-05-14T12:59:01.829Z,68.40
2018-05-14T13:01:30.071Z,65.70
2018-05-14T13:03:57.613Z,65.70
2018-05-14T13:06:25.051Z,69.70
2018-05-14T13:08:53.272Z,66.10
2018-05-14T13:11:20.686Z,66.10
2018-05-14T13:13:48.113Z,69.70
2018-05-14T13:16:15.558Z,69.00
2018-05-14T13:18:43.787Z,66.60
2018-05-14T13:21:11.310Z,66.40
2018-05-14T13:23:38.844Z,63.00
2018-05-14T13:26:06.423Z,61.90
2018-05-14T13:28:33.976Z,62.80
2018-05-14T13:31:01.630Z,67.90
2018-05-14T13:33:29.234Z,70.10
2018-05-14T13:35:56.904Z,69.00
2018-05-14T13:38:24.437Z,66.50
2018-05-14T13:40:51.906Z,69.60
2018-05-14T13:43:19.326Z,66.80
2018-05-14T13:45:46.762Z,70.80
2018-05-14T13:48:14.216Z,65.30
2018-05-14T13:50:41.690Z,62.90
2018-05-14T13:53:09.135Z,64.20
2018-05-14T13:55:37.342Z,65.20
2018-05-14T13:58:04.833Z,65.00
2018-05-14T14:00:32.383Z,64.60
2018-05-14T14:02:59.844Z,64.40
2018-05-14T14:05:27.352Z,63.80
2018-05-14T14:07:54.770Z,66.00
2018-05-14T14:10:23.012Z,71.20
2018-05-14T14:12:50.566Z,71.20
2018-05-14T14:15:18.018Z,73.30
2018-05-14T14:17:45.442Z,72.60
2018-05-14T14:20:12.958Z,68.40
2018-05-14T14:22:40.446Z,63.30
2018-05-14T14:25:07.906Z,65.10
2018-05-14T14:27:35.336Z,66.70
2018-05-14T14:30:03.547Z,71.60
2018-05-14T14:32:31.040Z,71.60
2018-05-14T14:34:58.511Z,76.40
2018-05-14T14:37:25.964Z,80.30
2018-05-14T14:39:53.470Z,82.60
2018-05-14T14:42:20.925Z,79.80
2018-05-14T14:44:49.088Z,85.30
2018-05-14T14:47:16.506Z,85.40
2018-05-14T14:49:44.043Z,89.70
2018-05-14T14:52:11.458Z,90.00
2018-05-14T14:54:38.982Z,90.80
2018-05-14T14:57:06.411Z,91.10
2018-05-14T14:59:34.610Z,91.00
2018-05-14T15:02:02.831Z,91.00
2018-05-14T15:04:30.267Z,91.00
2018-05-14T15:06:58.467Z,92.00
2018-05-14T15:09:26.679Z,92.00
2018-05-14T15:11:54.146Z,92.00
2018-05-14T15:14:21.603Z,92.10
2018-05-14T15:16:49.043Z,92.30
2018-05-14T15:19:17.234Z,93.20
2018-05-14T15:21:45.524Z,93.30
2018-05-14T15:24:12.916Z,93.30
2018-05-14T15:26:40.398Z,93.50
2018-05-14T15:29:07.822Z,94.00
2018-05-14T15:31:36.026Z,93.10
2018-05-14T15:34:03.451Z,93.10
2018-05-14T15:36:30.883Z,93.60
2018-05-14T15:38:58.301Z,93.50
2018-05-14T15:41:25.963Z,93.80
2018-05-14T15:43:53.387Z,94.70
2018-05-14T15:46:20.866Z,94.80
2018-05-14T15:48:48.330Z,94.90
2018-05-14T15:51:15.754Z,94.90
2018-05-14T15:53:43.270Z,94.80
2018-05-14T15:56:10.751Z,95.00
2018-05-14T15:58:38.163Z,95.10
2018-05-14T16:01:05.595Z,95.20
2018-05-14T16:03:33.046Z,95.30
2018-05-14T16:06:00.619Z,95.60
2018-05-14T16:08:28.782Z,95.60
2018-05-14T16:10:56.973Z,95.80
2018-05-14T16:13:24.464Z,95.80
2018-05-14T16:15:51.890Z,95.90
2018-05-14T16:18:19.310Z,95.80
2018-05-14T16:20:46.863Z,96.00
2018-05-14T16:23:14.245Z,95.90
2018-05-14T16:25:41.670Z,96.10
2018-05-14T16:28:09.182Z,96.30
2018-05-14T16:30:36.647Z,96.50
2018-05-14T16:33:04.122Z,96.10
2018-05-14T16:35:31.591Z,96.20
2018-05-14T16:37:59.011Z,96.20
2018-05-14T16:40:26.438Z,96.10
2018-05-14T16:42:53.862Z,96.10
2018-05-14T16:45:22.055Z,96.10
2018-05-14T16:47:50.352Z,96.00
2018-05-14T16:50:17.781Z,96.00
2018-05-14T16:52:45.135Z,96.00
2018-05-14T16:55:12.582Z,96.10
2018-05-14T16:57:40.151Z,95.80
2018-05-14T17:00:07.519Z,95.70
2018-05-14T17:02:34.943Z,96.30
2018-05-14T17:05:02.458Z,96.10
2018-05-14T17:07:29.882Z,96.50
2018-05-14T17:09:57.402Z,96.30
2018-05-14T17:12:24.822Z,96.40
2018-05-14T17:14:52.338Z,96.00
2018-05-14T17:17:19.805Z,96.20
2018-05-14T17:19:47.283Z,94.60
2018-05-14T17:22:14.751Z,94.50
2018-05-14T17:24:42.170Z,95.80
2018-05-14T17:27:09.602Z,96.20
2018-05-14T17:29:37.029Z,96.20
2018-05-14T17:32:05.246Z,96.40
2018-05-14T17:34:32.710Z,96.40
2018-05-14T17:37:00.187Z,96.60
2018-05-14T17:39:27.614Z,96.80
2018-05-14T17:41:55.818Z,97.00
2018-05-14T17:44:24.038Z,96.80
2018-05-14T17:46:51.821Z,96.80
2018-05-14T17:49:19.162Z,96.80
2018-05-14T17:51:46.589Z,96.70
2018-05-14T17:54:14.018Z,96.60
2018-05-14T17:56:41.461Z,96.50
2018-05-14T17:59:09.645Z,96.90
2018-05-14T18:01:37.843Z,96.90
2018-05-14T18:04:05.262Z,96.80
2018-05-14T18:06:32.703Z,96.80
2018-05-14T18:09:00.118Z,96.80
2018-05-14T18:11:28.318Z,97.00
2018-05-14T18:13:56.531Z,97.00
2018-05-14T18:16:24.003Z,97.00
2018-05-14T18:18:51.426Z,97.00
2018-05-14T18:21:24.531Z,97.10
2018-05-14T18:23:51.956Z,97.20
2018-05-14T18:26:19.394Z,97.20
2018-05-14T18:28:49.406Z,97.40
2018-05-14T18:31:23.391Z,97.40
2018-05-14T18:33:53.314Z,97.40
2018-05-14T18:36:20.767Z,97.50
2018-05-14T18:38:48.231Z,97.60
2018-05-14T18:41:15.667Z,97.60
2018-05-14T18:43:43.890Z,97.70
2018-05-14T18:46:11.389Z,97.70
2018-05-14T18:48:38.858Z,97.80
2018-05-14T18:51:06.419Z,97.80
2018-05-14T18:53:34.696Z,97.50
2018-05-14T18:56:02.234Z,97.50
2018-05-14T18:58:30.762Z,96.70
2018-05-14T19:00:58.319Z,96.60
2018-05-14T19:03:25.755Z,96.40
2018-05-14T19:05:53.178Z,95.20
2018-05-14T19:08:20.639Z,95.00
2018-05-14T19:10:53.593Z,94.20
2018-05-14T19:13:21.105Z,94.30
2018-05-14T19:15:54.309Z,94.10
2018-05-14T19:18:21.794Z,94.30
2018-05-14T19:20:49.214Z,93.70
2018-05-14T19:23:22.219Z,93.70
2018-05-14T19:25:50.443Z,94.30
2018-05-14T19:28:23.637Z,94.30
2018-05-14T19:30:51.129Z,94.60
2018-05-14T19:33:24.261Z,94.90
2018-05-14T19:35:57.862Z,94.70
2018-05-14T19:38:25.986Z,94.40
2018-05-14T19:40:54.181Z,94.70
2018-05-14T19:43:22.377Z,95.00
2018-05-14T19:45:49.798Z,95.00
2018-05-14T19:48:17.327Z,94.90
2018-05-14T19:50:44.747Z,94.80
2018-05-14T19:53:12.275Z,94.80
2018-05-14T19:55:39.739Z,94.90
2018-05-14T19:58:07.246Z,94.70
2018-05-14T20:00:34.719Z,94.80
2018-05-14T20:03:02.171Z,94.90
2018-05-14T20:05:29.652Z,95.00
2018-05-14T20:07:57.091Z,95.00
2018-05-14T20:10:24.587Z,94.90
2018-05-14T20:12:52.114Z,94.80
2018-05-14T20:15:19.457Z,94.70
2018-05-14T20:17:46.971Z,94.50
2018-05-14T20:20:14.503Z,94.30
2018-05-14T20:22:41.870Z,94.30
2018-05-14T20:25:09.377Z,93.90
2018-05-14T20:27:36.918Z,92.70
2018-05-14T20:30:05.167Z,92.00
2018-05-14T20:32:32.614Z,92.00
2018-05-14T20:35:00.091Z,91.50
2018-05-14T20:37:27.649Z,91.50
2018-05-14T20:39:55.012Z,92.50
2018-05-14T20:42:22.493Z,92.90
2018-05-14T20:44:49.914Z,92.60
2018-05-14T20:47:18.846Z,93.30
2018-05-14T20:49:46.264Z,93.30
2018-05-14T20:52:13.696Z,93.30
2018-05-14T20:54:41.102Z,93.50
2018-05-14T20:57:08.531Z,93.80
2018-05-14T20:59:36.015Z,93.80
2018-05-14T21:02:03.469Z,93.90
2018-05-14T21:04:30.906Z,93.80
2018-05-14T21:06:58.387Z,92.70
2018-05-14T21:09:26.614Z,93.60
2018-05-14T21:11:54.111Z,93.50
2018-05-14T21:14:21.542Z,93.70
2018-05-14T21:16:49.018Z,93.80
2018-05-14T21:19:16.444Z,93.70
2018-05-14T21:21:43.954Z,92.00
2018-05-14T21:24:11.383Z,92.60
2018-05-14T21:26:39.879Z,93.20
2018-05-14T21:29:07.429Z,93.20
2018-05-14T21:31:34.869Z,93.30
2018-05-14T21:34:02.323Z,93.00
2018-05-14T21:36:29.829Z,92.00
2018-05-14T21:38:57.308Z,91.30
2018-05-14T21:41:24.742Z,90.70
2018-05-14T21:43:52.175Z,89.60
2018-05-14T21:46:20.390Z,88.20
2018-05-14T21:48:47.822Z,88.20
2018-05-14T21:51:15.333Z,87.20
2018-05-14T21:53:42.766Z,86.00
2018-05-14T21:56:10.998Z,83.60
2018-05-14T21:58:38.482Z,83.50
2018-05-14T22:01:05.923Z,81.00
2018-05-14T22:03:33.384Z,81.40
2018-05-14T22:06:01.657Z,80.90
2018-05-14T22:08:29.909Z,79.90
2018-05-14T22:10:57.370Z,79.90
2018-05-14T22:13:26.771Z,77.80
2018-05-14T22:15:54.196Z,78.40
2018-05-14T22:18:21.768Z,78.10
2018-05-14T22:20:49.118Z,77.60
2018-05-14T22:23:16.554Z,78.20
2018-05-14T22:25:44.011Z,77.70
2018-05-14T22:28:11.491Z,78.50
2018-05-14T22:30:38.955Z,77.00
2018-05-14T22:33:06.434Z,78.00
2018-05-14T22:35:33.884Z,78.20
2018-05-14T22:38:01.351Z,78.50
2018-05-14T22:40:29.751Z,76.40
2018-05-14T22:42:57.202Z,76.50
2018-05-14T22:45:24.699Z,76.00
2018-05-14T22:47:52.114Z,75.60
2018-05-14T22:50:19.539Z,75.20
2018-05-14T22:52:46.971Z,73.80
2018-05-14T22:55:15.154Z,73.30
2018-05-14T22:57:43.346Z,72.70
2018-05-14T23:00:11.531Z,72.80
2018-05-14T23:02:39.758Z,72.80
2018-05-14T23:05:07.195Z,72.80
2018-05-14T23:07:35.419Z,73.60
2018-05-14T23:10:02.874Z,73.60
2018-05-14T23:12:30.475Z,73.40
2018-05-14T23:14:58.062Z,74.10
2018-05-14T23:17:25.489Z,74.20
2018-05-14T23:19:52.910Z,74.30
2018-05-14T23:22:21.146Z,72.80
2018-05-14T23:24:48.612Z,72.80
2018-05-14T23:27:16.086Z,74.20
2018-05-14T23:29:43.550Z,74.50
2018-05-14T23:32:11.470Z,73.90
2018-05-14T23:34:38.906Z,73.20
2018-05-14T23:37:06.327Z,73.20
2018-05-14T23:39:34.605Z,73.60
2018-05-14T23:42:02.084Z,73.50
2018-05-14T23:44:29.634Z,74.10
2018-05-14T23:46:58.188Z,74.70
2018-05-14T23:49:25.609Z,74.10
2018-05-14T23:51:53.143Z,74.00
2018-05-14T23:54:20.610Z,72.40
2018-05-14T23:56:48.031Z,72.20
2018-05-14T23:59:16.974Z,73.80
